sensor_id;sensor_type;location;lat;lon;timestamp;temperature;humidity
69901;DHT22;57183;50.930;5.406;2023-07-13T00:01:05;17.00;99.90
69901;DHT22;57183;50.930;5.406;2023-07-13T00:03:31;17.00;99.90
69901;DHT22;57183;50.930;5.406;2023-07-13T00:06:00;17.00;99.90
69901;DHT22;57183;50.930;5.406;2023-07-13T00:08:29;16.90;99.90
69901;DHT22;57183;50.930;5.406;2023-07-13T00:10:55;16.80;99.90
69901;DHT22;57183;50.930;5.406;2023-07-13T00:13:21;16.60;99.90
69901;DHT22;57183;50.930;5.406;2023-07-13T00:15:46;16.70;99.90
69901;DHT22;57183;50.930;5.406;2023-07-13T00:18:13;16.80;99.90
69901;DHT22;57183;50.930;5.406;2023-07-13T00:20:38;16.80;99.90
69901;DHT22;57183;50.930;5.406;2023-07-13T00:23:07;16.80;99.90
69901;DHT22;57183;50.930;5.406;2023-07-13T00:25:32;16.80;99.90
69901;DHT22;57183;50.930;5.406;2023-07-13T00:27:58;16.70;99.90
69901;DHT22;57183;50.930;5.406;2023-07-13T00:30:24;16.60;99.90
69901;DHT22;57183;50.930;5.406;2023-07-13T00:32:51;16.60;99.90
69901;DHT22;57183;50.930;5.406;2023-07-13T00:35:17;16.70;99.90
69901;DHT22;57183;50.930;5.406;2023-07-13T00:37:42;16.70;99.90
69901;DHT22;57183;50.930;5.406;2023-07-13T00:40:10;16.70;99.90
69901;DHT22;57183;50.930;5.406;2023-07-13T00:42:36;16.60;99.90
69901;DHT22;57183;50.930;5.406;2023-07-13T00:46:11;16.60;99.90
69901;DHT22;57183;50.930;5.406;2023-07-13T00:47:54;16.60;99.90
69901;DHT22;57183;50.930;5.406;2023-07-13T00:50:21;16.60;99.90
69901;DHT22;57183;50.930;5.406;2023-07-13T00:52:50;16.50;99.90
69901;DHT22;57183;50.930;5.406;2023-07-13T00:55:17;16.60;99.90
69901;DHT22;57183;50.930;5.406;2023-07-13T00:57:44;16.60;99.90
69901;DHT22;57183;50.930;5.406;2023-07-13T01:00:10;16.60;99.90
69901;DHT22;57183;50.930;5.406;2023-07-13T01:02:39;16.50;99.90
69901;DHT22;57183;50.930;5.406;2023-07-13T01:05:15;16.60;99.90
69901;DHT22;57183;50.930;5.406;2023-07-13T01:07:42;16.40;99.90
69901;DHT22;57183;50.930;5.406;2023-07-13T01:10:10;16.30;99.90
69901;DHT22;57183;50.930;5.406;2023-07-13T01:12:36;16.30;99.90
69901;DHT22;57183;50.930;5.406;2023-07-13T01:15:02;16.40;99.90
69901;DHT22;57183;50.930;5.406;2023-07-13T01:17:31;16.30;99.90
69901;DHT22;57183;50.930;5.406;2023-07-13T01:19:57;16.40;99.90
69901;DHT22;57183;50.930;5.406;2023-07-13T01:22:22;16.30;99.90
69901;DHT22;57183;50.930;5.406;2023-07-13T01:24:53;16.20;99.90
69901;DHT22;57183;50.930;5.406;2023-07-13T01:27:23;16.20;99.90
69901;DHT22;57183;50.930;5.406;2023-07-13T01:29:50;16.20;99.90
69901;DHT22;57183;50.930;5.406;2023-07-13T01:32:19;16.30;99.90
69901;DHT22;57183;50.930;5.406;2023-07-13T01:34:50;16.20;99.90
69901;DHT22;57183;50.930;5.406;2023-07-13T01:37:16;16.20;99.90
69901;DHT22;57183;50.930;5.406;2023-07-13T01:39:42;16.20;99.90
69901;DHT22;57183;50.930;5.406;2023-07-13T01:42:08;16.20;99.90
69901;DHT22;57183;50.930;5.406;2023-07-13T01:44:34;16.20;99.90
69901;DHT22;57183;50.930;5.406;2023-07-13T01:47:00;16.20;99.90
69901;DHT22;57183;50.930;5.406;2023-07-13T01:49:25;16.20;99.90
69901;DHT22;57183;50.930;5.406;2023-07-13T01:51:51;16.10;99.90
69901;DHT22;57183;50.930;5.406;2023-07-13T01:54:17;16.10;99.90
69901;DHT22;57183;50.930;5.406;2023-07-13T01:56:42;16.10;99.90
69901;DHT22;57183;50.930;5.406;2023-07-13T01:59:09;16.10;99.90
69901;DHT22;57183;50.930;5.406;2023-07-13T02:01:34;16.10;99.90
69901;DHT22;57183;50.930;5.406;2023-07-13T02:04:00;16.00;99.90
69901;DHT22;57183;50.930;5.406;2023-07-13T02:06:26;15.90;99.90
69901;DHT22;57183;50.930;5.406;2023-07-13T02:08:51;15.90;99.90
69901;DHT22;57183;50.930;5.406;2023-07-13T02:11:17;15.80;99.90
69901;DHT22;57183;50.930;5.406;2023-07-13T02:13:43;15.80;99.90
69901;DHT22;57183;50.930;5.406;2023-07-13T02:16:08;15.80;99.90
69901;DHT22;57183;50.930;5.406;2023-07-13T02:18:34;15.80;99.90
69901;DHT22;57183;50.930;5.406;2023-07-13T02:21:00;15.80;99.90
69901;DHT22;57183;50.930;5.406;2023-07-13T02:23:26;15.70;99.90
69901;DHT22;57183;50.930;5.406;2023-07-13T02:25:56;15.70;99.90
69901;DHT22;57183;50.930;5.406;2023-07-13T02:28:21;15.60;99.90
69901;DHT22;57183;50.930;5.406;2023-07-13T02:30:47;15.70;99.90
69901;DHT22;57183;50.930;5.406;2023-07-13T02:33:13;15.70;99.90
69901;DHT22;57183;50.930;5.406;2023-07-13T02:35:38;15.80;99.90
69901;DHT22;57183;50.930;5.406;2023-07-13T02:38:04;15.80;99.90
69901;DHT22;57183;50.930;5.406;2023-07-13T02:40:29;15.80;99.90
69901;DHT22;57183;50.930;5.406;2023-07-13T02:42:58;15.70;99.90
69901;DHT22;57183;50.930;5.406;2023-07-13T02:45:24;15.70;99.90
69901;DHT22;57183;50.930;5.406;2023-07-13T02:47:50;15.70;99.90
69901;DHT22;57183;50.930;5.406;2023-07-13T02:50:15;15.60;99.90
69901;DHT22;57183;50.930;5.406;2023-07-13T02:52:41;15.50;99.90
69901;DHT22;57183;50.930;5.406;2023-07-13T02:55:07;15.60;99.90
69901;DHT22;57183;50.930;5.406;2023-07-13T02:57:33;15.60;99.90
69901;DHT22;57183;50.930;5.406;2023-07-13T02:59:59;15.60;99.90
69901;DHT22;57183;50.930;5.406;2023-07-13T03:02:25;15.60;99.90
69901;DHT22;57183;50.930;5.406;2023-07-13T03:04:54;15.50;99.90
69901;DHT22;57183;50.930;5.406;2023-07-13T03:07:20;15.50;99.90
69901;DHT22;57183;50.930;5.406;2023-07-13T03:09:46;15.30;99.90
69901;DHT22;57183;50.930;5.406;2023-07-13T03:12:12;15.30;99.90
69901;DHT22;57183;50.930;5.406;2023-07-13T03:14:37;15.50;99.90
69901;DHT22;57183;50.930;5.406;2023-07-13T03:17:03;15.50;99.90
69901;DHT22;57183;50.930;5.406;2023-07-13T03:19:29;15.50;99.90
69901;DHT22;57183;50.930;5.406;2023-07-13T03:21:55;15.60;99.90
69901;DHT22;57183;50.930;5.406;2023-07-13T03:24:20;15.60;99.90
69901;DHT22;57183;50.930;5.406;2023-07-13T03:26:48;15.70;99.90
69901;DHT22;57183;50.930;5.406;2023-07-13T03:29:14;15.70;99.90
69901;DHT22;57183;50.930;5.406;2023-07-13T03:31:40;15.60;99.90
69901;DHT22;57183;50.930;5.406;2023-07-13T03:34:05;15.70;99.90
69901;DHT22;57183;50.930;5.406;2023-07-13T03:36:32;15.70;99.90
69901;DHT22;57183;50.930;5.406;2023-07-13T03:39:00;15.50;99.90
69901;DHT22;57183;50.930;5.406;2023-07-13T03:41:26;15.60;99.90
69901;DHT22;57183;50.930;5.406;2023-07-13T03:43:52;15.60;99.90
69901;DHT22;57183;50.930;5.406;2023-07-13T03:46:18;15.60;99.90
69901;DHT22;57183;50.930;5.406;2023-07-13T03:48:46;15.60;99.90
69901;DHT22;57183;50.930;5.406;2023-07-13T03:51:14;15.60;99.90
69901;DHT22;57183;50.930;5.406;2023-07-13T03:53:44;15.70;99.90
69901;DHT22;57183;50.930;5.406;2023-07-13T03:56:11;15.70;99.90
69901;DHT22;57183;50.930;5.406;2023-07-13T03:58:40;15.80;99.90
69901;DHT22;57183;50.930;5.406;2023-07-13T04:01:08;15.90;99.90
69901;DHT22;57183;50.930;5.406;2023-07-13T04:03:34;16.00;99.90
69901;DHT22;57183;50.930;5.406;2023-07-13T04:06:05;16.20;99.90
69901;DHT22;57183;50.930;5.406;2023-07-13T04:08:34;16.20;99.90
69901;DHT22;57183;50.930;5.406;2023-07-13T04:11:01;16.10;99.90
69901;DHT22;57183;50.930;5.406;2023-07-13T04:13:27;16.20;99.90
69901;DHT22;57183;50.930;5.406;2023-07-13T04:15:53;16.20;99.90
69901;DHT22;57183;50.930;5.406;2023-07-13T04:18:20;16.30;99.90
69901;DHT22;57183;50.930;5.406;2023-07-13T04:20:49;16.20;99.90
69901;DHT22;57183;50.930;5.406;2023-07-13T04:23:16;16.10;99.90
69901;DHT22;57183;50.930;5.406;2023-07-13T04:25:49;16.10;99.90
69901;DHT22;57183;50.930;5.406;2023-07-13T04:28:22;16.10;99.90
69901;DHT22;57183;50.930;5.406;2023-07-13T04:30:48;16.20;99.90
69901;DHT22;57183;50.930;5.406;2023-07-13T04:33:14;16.30;99.90
69901;DHT22;57183;50.930;5.406;2023-07-13T04:35:42;16.20;99.90
69901;DHT22;57183;50.930;5.406;2023-07-13T04:38:08;16.20;99.90
69901;DHT22;57183;50.930;5.406;2023-07-13T04:40:36;16.20;99.90
69901;DHT22;57183;50.930;5.406;2023-07-13T04:43:02;16.40;99.90
69901;DHT22;57183;50.930;5.406;2023-07-13T04:45:28;16.40;99.90
69901;DHT22;57183;50.930;5.406;2023-07-13T04:47:53;16.50;99.90
69901;DHT22;57183;50.930;5.406;2023-07-13T04:50:19;16.50;99.90
69901;DHT22;57183;50.930;5.406;2023-07-13T04:52:52;16.50;99.90
69901;DHT22;57183;50.930;5.406;2023-07-13T04:55:19;16.60;99.90
69901;DHT22;57183;50.930;5.406;2023-07-13T04:57:45;16.60;99.90
69901;DHT22;57183;50.930;5.406;2023-07-13T05:00:12;16.70;99.90
69901;DHT22;57183;50.930;5.406;2023-07-13T05:02:39;16.70;99.90
69901;DHT22;57183;50.930;5.406;2023-07-13T05:05:05;16.80;99.90
69901;DHT22;57183;50.930;5.406;2023-07-13T05:07:31;16.80;99.90
69901;DHT22;57183;50.930;5.406;2023-07-13T05:09:59;16.80;99.90
69901;DHT22;57183;50.930;5.406;2023-07-13T05:12:26;16.70;99.90
69901;DHT22;57183;50.930;5.406;2023-07-13T05:14:51;16.60;99.90
69901;DHT22;57183;50.930;5.406;2023-07-13T05:17:17;16.60;99.90
69901;DHT22;57183;50.930;5.406;2023-07-13T05:19:43;16.60;99.90
69901;DHT22;57183;50.930;5.406;2023-07-13T05:22:08;16.70;99.90
69901;DHT22;57183;50.930;5.406;2023-07-13T05:24:34;16.70;99.90
69901;DHT22;57183;50.930;5.406;2023-07-13T05:27:00;16.60;99.90
69901;DHT22;57183;50.930;5.406;2023-07-13T05:29:25;16.80;99.90
69901;DHT22;57183;50.930;5.406;2023-07-13T05:31:51;16.90;99.90
69901;DHT22;57183;50.930;5.406;2023-07-13T05:34:17;17.00;99.90
69901;DHT22;57183;50.930;5.406;2023-07-13T05:36:42;17.10;99.90
69901;DHT22;57183;50.930;5.406;2023-07-13T05:39:08;17.20;99.90
69901;DHT22;57183;50.930;5.406;2023-07-13T05:41:35;17.10;99.90
69901;DHT22;57183;50.930;5.406;2023-07-13T05:44:01;17.30;99.90
69901;DHT22;57183;50.930;5.406;2023-07-13T05:46:27;17.40;99.90
69901;DHT22;57183;50.930;5.406;2023-07-13T05:48:53;17.50;99.90
69901;DHT22;57183;50.930;5.406;2023-07-13T05:51:18;17.60;99.90
69901;DHT22;57183;50.930;5.406;2023-07-13T05:53:44;17.40;99.90
69901;DHT22;57183;50.930;5.406;2023-07-13T05:56:09;17.30;99.90
69901;DHT22;57183;50.930;5.406;2023-07-13T05:58:35;17.40;99.90
69901;DHT22;57183;50.930;5.406;2023-07-13T06:01:04;17.50;99.90
69901;DHT22;57183;50.930;5.406;2023-07-13T06:03:31;17.60;99.90
69901;DHT22;57183;50.930;5.406;2023-07-13T06:05:57;17.60;99.90
69901;DHT22;57183;50.930;5.406;2023-07-13T06:08:22;17.70;99.90
69901;DHT22;57183;50.930;5.406;2023-07-13T06:10:48;17.70;99.90
69901;DHT22;57183;50.930;5.406;2023-07-13T06:13:14;17.60;99.90
69901;DHT22;57183;50.930;5.406;2023-07-13T06:15:39;17.70;99.90
69901;DHT22;57183;50.930;5.406;2023-07-13T06:18:05;17.70;99.90
69901;DHT22;57183;50.930;5.406;2023-07-13T06:20:34;17.60;99.90
69901;DHT22;57183;50.930;5.406;2023-07-13T06:23:01;17.80;99.90
69901;DHT22;57183;50.930;5.406;2023-07-13T06:25:27;17.80;99.90
69901;DHT22;57183;50.930;5.406;2023-07-13T06:27:52;17.90;99.90
69901;DHT22;57183;50.930;5.406;2023-07-13T06:30:18;17.80;99.90
69901;DHT22;57183;50.930;5.406;2023-07-13T06:32:44;17.80;99.90
69901;DHT22;57183;50.930;5.406;2023-07-13T06:35:09;17.90;99.90
69901;DHT22;57183;50.930;5.406;2023-07-13T06:37:38;18.00;99.90
69901;DHT22;57183;50.930;5.406;2023-07-13T06:40:03;18.00;99.90
69901;DHT22;57183;50.930;5.406;2023-07-13T06:42:29;18.00;99.90
69901;DHT22;57183;50.930;5.406;2023-07-13T06:44:55;17.90;99.90
69901;DHT22;57183;50.930;5.406;2023-07-13T06:47:20;17.90;99.90
69901;DHT22;57183;50.930;5.406;2023-07-13T06:49:46;18.00;99.90
69901;DHT22;57183;50.930;5.406;2023-07-13T06:52:12;18.30;99.90
69901;DHT22;57183;50.930;5.406;2023-07-13T06:54:37;18.40;99.90
69901;DHT22;57183;50.930;5.406;2023-07-13T06:57:03;18.60;99.90
69901;DHT22;57183;50.930;5.406;2023-07-13T06:59:29;18.80;99.90
69901;DHT22;57183;50.930;5.406;2023-07-13T07:01:54;19.00;99.90
69901;DHT22;57183;50.930;5.406;2023-07-13T07:04:20;19.00;99.90
69901;DHT22;57183;50.930;5.406;2023-07-13T07:06:46;18.90;99.90
69901;DHT22;57183;50.930;5.406;2023-07-13T07:09:11;18.90;99.90
69901;DHT22;57183;50.930;5.406;2023-07-13T07:11:37;19.00;99.90
69901;DHT22;57183;50.930;5.406;2023-07-13T07:14:03;18.90;99.90
69901;DHT22;57183;50.930;5.406;2023-07-13T07:16:28;19.10;99.90
69901;DHT22;57183;50.930;5.406;2023-07-13T07:18:54;19.10;99.90
69901;DHT22;57183;50.930;5.406;2023-07-13T07:21:20;19.00;99.90
69901;DHT22;57183;50.930;5.406;2023-07-13T07:23:48;18.90;99.90
69901;DHT22;57183;50.930;5.406;2023-07-13T07:26:14;19.00;99.90
69901;DHT22;57183;50.930;5.406;2023-07-13T07:28:39;19.00;99.90
69901;DHT22;57183;50.930;5.406;2023-07-13T07:31:05;18.90;99.90
69901;DHT22;57183;50.930;5.406;2023-07-13T07:33:33;18.90;99.90
69901;DHT22;57183;50.930;5.406;2023-07-13T07:35:58;19.10;99.90
69901;DHT22;57183;50.930;5.406;2023-07-13T07:38:24;19.10;99.90
69901;DHT22;57183;50.930;5.406;2023-07-13T07:40:50;19.20;99.90
69901;DHT22;57183;50.930;5.406;2023-07-13T07:43:15;19.30;99.90
69901;DHT22;57183;50.930;5.406;2023-07-13T07:45:41;19.20;99.90
69901;DHT22;57183;50.930;5.406;2023-07-13T07:48:07;19.10;99.90
69901;DHT22;57183;50.930;5.406;2023-07-13T07:50:35;19.20;99.90
69901;DHT22;57183;50.930;5.406;2023-07-13T07:53:01;19.30;99.90
69901;DHT22;57183;50.930;5.406;2023-07-13T07:55:27;19.40;99.90
69901;DHT22;57183;50.930;5.406;2023-07-13T07:57:53;19.50;99.90
69901;DHT22;57183;50.930;5.406;2023-07-13T08:00:19;19.60;99.90
69901;DHT22;57183;50.930;5.406;2023-07-13T08:02:45;19.50;99.90
69901;DHT22;57183;50.930;5.406;2023-07-13T08:05:11;19.50;99.90
69901;DHT22;57183;50.930;5.406;2023-07-13T08:07:38;19.60;99.90
69901;DHT22;57183;50.930;5.406;2023-07-13T08:10:07;19.90;99.90
69901;DHT22;57183;50.930;5.406;2023-07-13T08:12:35;20.10;99.90
69901;DHT22;57183;50.930;5.406;2023-07-13T08:15:00;20.10;99.90
69901;DHT22;57183;50.930;5.406;2023-07-13T08:17:26;20.30;99.90
69901;DHT22;57183;50.930;5.406;2023-07-13T08:19:52;20.30;99.90
69901;DHT22;57183;50.930;5.406;2023-07-13T08:22:18;20.40;99.90
69901;DHT22;57183;50.930;5.406;2023-07-13T08:24:44;20.50;99.90
69901;DHT22;57183;50.930;5.406;2023-07-13T08:27:11;20.40;99.90
69901;DHT22;57183;50.930;5.406;2023-07-13T08:29:37;20.30;99.90
69901;DHT22;57183;50.930;5.406;2023-07-13T08:32:04;20.10;99.90
69901;DHT22;57183;50.930;5.406;2023-07-13T08:34:30;20.00;99.90
69901;DHT22;57183;50.930;5.406;2023-07-13T08:36:55;20.10;99.90
69901;DHT22;57183;50.930;5.406;2023-07-13T08:39:21;20.10;99.90
69901;DHT22;57183;50.930;5.406;2023-07-13T08:41:55;20.30;99.90
69901;DHT22;57183;50.930;5.406;2023-07-13T08:47:28;20.30;99.90
69901;DHT22;57183;50.930;5.406;2023-07-13T08:49:56;20.40;99.90
69901;DHT22;57183;50.930;5.406;2023-07-13T08:52:34;20.50;99.90
69901;DHT22;57183;50.930;5.406;2023-07-13T08:55:06;20.50;99.90
69901;DHT22;57183;50.930;5.406;2023-07-13T08:57:35;20.70;99.90
69901;DHT22;57183;50.930;5.406;2023-07-13T09:00:01;20.90;99.90
69901;DHT22;57183;50.930;5.406;2023-07-13T09:02:51;21.00;99.90
69901;DHT22;57183;50.930;5.406;2023-07-13T09:05:26;20.90;99.90
69901;DHT22;57183;50.930;5.406;2023-07-13T09:08:24;20.90;99.90
69901;DHT22;57183;50.930;5.406;2023-07-13T09:11:04;20.60;99.90
69901;DHT22;57183;50.930;5.406;2023-07-13T09:13:47;20.60;99.90
69901;DHT22;57183;50.930;5.406;2023-07-13T09:16:17;20.70;99.90
69901;DHT22;57183;50.930;5.406;2023-07-13T09:18:50;20.70;99.90
69901;DHT22;57183;50.930;5.406;2023-07-13T09:21:23;20.70;99.90
69901;DHT22;57183;50.930;5.406;2023-07-13T09:23:53;20.80;99.90
69901;DHT22;57183;50.930;5.406;2023-07-13T09:26:23;21.00;99.90
69901;DHT22;57183;50.930;5.406;2023-07-13T09:28:53;21.10;99.90
69901;DHT22;57183;50.930;5.406;2023-07-13T09:31:24;21.30;99.90
69901;DHT22;57183;50.930;5.406;2023-07-13T09:33:51;21.50;99.90
69901;DHT22;57183;50.930;5.406;2023-07-13T09:36:33;21.60;99.90
69901;DHT22;57183;50.930;5.406;2023-07-13T09:44:51;21.70;99.90
69901;DHT22;57183;50.930;5.406;2023-07-13T09:47:20;21.50;99.90
69901;DHT22;57183;50.930;5.406;2023-07-13T09:49:54;21.50;99.90
69901;DHT22;57183;50.930;5.406;2023-07-13T09:52:20;21.60;99.90
69901;DHT22;57183;50.930;5.406;2023-07-13T09:54:49;21.40;99.90
69901;DHT22;57183;50.930;5.406;2023-07-13T09:57:18;21.40;99.90
69901;DHT22;57183;50.930;5.406;2023-07-13T09:59:47;21.20;99.90
69901;DHT22;57183;50.930;5.406;2023-07-13T10:02:30;21.20;99.90
69901;DHT22;57183;50.930;5.406;2023-07-13T10:05:10;21.00;99.90
69901;DHT22;57183;50.930;5.406;2023-07-13T10:07:43;20.90;99.90
69901;DHT22;57183;50.930;5.406;2023-07-13T10:10:15;21.10;99.90
69901;DHT22;57183;50.930;5.406;2023-07-13T10:12:41;21.50;99.90
69901;DHT22;57183;50.930;5.406;2023-07-13T10:15:15;21.70;99.90
69901;DHT22;57183;50.930;5.406;2023-07-13T10:17:41;21.60;99.90
69901;DHT22;57183;50.930;5.406;2023-07-13T10:20:07;21.80;99.90
69901;DHT22;57183;50.930;5.406;2023-07-13T10:25:20;21.90;99.90
69901;DHT22;57183;50.930;5.406;2023-07-13T10:27:50;21.90;99.90
69901;DHT22;57183;50.930;5.406;2023-07-13T10:30:22;22.10;99.90
69901;DHT22;57183;50.930;5.406;2023-07-13T10:32:51;22.10;99.90
69901;DHT22;57183;50.930;5.406;2023-07-13T10:35:20;22.10;99.90
69901;DHT22;57183;50.930;5.406;2023-07-13T10:40:43;22.00;99.90
69901;DHT22;57183;50.930;5.406;2023-07-13T10:43:25;22.00;99.90
69901;DHT22;57183;50.930;5.406;2023-07-13T10:45:52;21.90;99.90
69901;DHT22;57183;50.930;5.406;2023-07-13T10:48:21;21.60;99.90
69901;DHT22;57183;50.930;5.406;2023-07-13T10:50:49;21.70;99.90
69901;DHT22;57183;50.930;5.406;2023-07-13T10:53:31;21.80;99.90
69901;DHT22;57183;50.930;5.406;2023-07-13T10:56:02;21.80;99.90
69901;DHT22;57183;50.930;5.406;2023-07-13T10:58:38;21.70;99.90
69901;DHT22;57183;50.930;5.406;2023-07-13T11:01:13;21.50;99.90
69901;DHT22;57183;50.930;5.406;2023-07-13T11:04:00;21.40;99.90
69901;DHT22;57183;50.930;5.406;2023-07-13T11:12:48;21.80;99.90
69901;DHT22;57183;50.930;5.406;2023-07-13T11:22:46;22.50;99.90
69901;DHT22;57183;50.930;5.406;2023-07-13T11:25:28;22.40;99.90
69901;DHT22;57183;50.930;5.406;2023-07-13T11:30:43;22.50;99.90
69901;DHT22;57183;50.930;5.406;2023-07-13T11:33:18;22.80;99.90
69901;DHT22;57183;50.930;5.406;2023-07-13T11:36:03;22.90;99.90
69901;DHT22;57183;50.930;5.406;2023-07-13T11:38:39;22.60;99.90
69901;DHT22;57183;50.930;5.406;2023-07-13T11:41:06;22.50;99.90
69901;DHT22;57183;50.930;5.406;2023-07-13T11:43:33;22.40;99.90
69901;DHT22;57183;50.930;5.406;2023-07-13T11:46:15;22.50;99.90
69901;DHT22;57183;50.930;5.406;2023-07-13T11:48:42;22.60;99.90
69901;DHT22;57183;50.930;5.406;2023-07-13T11:51:22;22.40;99.90
69901;DHT22;57183;50.930;5.406;2023-07-13T11:53:50;22.60;99.90
69901;DHT22;57183;50.930;5.406;2023-07-13T11:56:16;22.80;99.90
69901;DHT22;57183;50.930;5.406;2023-07-13T11:58:42;23.00;99.90
69901;DHT22;57183;50.930;5.406;2023-07-13T12:01:26;23.00;99.90
69901;DHT22;57183;50.930;5.406;2023-07-13T12:03:59;23.20;99.90
69901;DHT22;57183;50.930;5.406;2023-07-13T12:06:31;23.20;99.90
69901;DHT22;57183;50.930;5.406;2023-07-13T12:09:02;22.90;99.90
69901;DHT22;57183;50.930;5.406;2023-07-13T12:11:29;23.00;99.90
69901;DHT22;57183;50.930;5.406;2023-07-13T12:13:55;23.20;99.90
69901;DHT22;57183;50.930;5.406;2023-07-13T12:16:28;23.50;99.90
69901;DHT22;57183;50.930;5.406;2023-07-13T12:18:54;23.60;99.90
69901;DHT22;57183;50.930;5.406;2023-07-13T12:21:29;23.60;99.90
69901;DHT22;57183;50.930;5.406;2023-07-13T12:23:55;23.50;99.50
69901;DHT22;57183;50.930;5.406;2023-07-13T12:26:21;23.80;99.90
69901;DHT22;57183;50.930;5.406;2023-07-13T12:28:53;24.10;99.90
69901;DHT22;57183;50.930;5.406;2023-07-13T12:31:41;24.10;99.40
69901;DHT22;57183;50.930;5.406;2023-07-13T12:34:14;24.00;98.20
69901;DHT22;57183;50.930;5.406;2023-07-13T12:36:49;23.50;98.40
69901;DHT22;57183;50.930;5.406;2023-07-13T12:42:29;23.60;99.50
69901;DHT22;57183;50.930;5.406;2023-07-13T12:45:26;23.50;98.00
69901;DHT22;57183;50.930;5.406;2023-07-13T12:47:58;23.40;98.50
69901;DHT22;57183;50.930;5.406;2023-07-13T12:50:30;23.50;99.60
69901;DHT22;57183;50.930;5.406;2023-07-13T12:53:03;23.90;97.50
69901;DHT22;57183;50.930;5.406;2023-07-13T12:55:29;23.60;98.20
69901;DHT22;57183;50.930;5.406;2023-07-13T12:57:59;23.20;98.60
69901;DHT22;57183;50.930;5.406;2023-07-13T13:03:02;23.60;98.40
69901;DHT22;57183;50.930;5.406;2023-07-13T13:05:30;23.90;98.40
69901;DHT22;57183;50.930;5.406;2023-07-13T13:07:57;24.00;98.20
69901;DHT22;57183;50.930;5.406;2023-07-13T13:10:23;24.10;98.00
69901;DHT22;57183;50.930;5.406;2023-07-13T13:12:50;24.10;97.90
69901;DHT22;57183;50.930;5.406;2023-07-13T13:15:16;23.80;97.10
69901;DHT22;57183;50.930;5.406;2023-07-13T13:17:42;23.50;96.90
69901;DHT22;57183;50.930;5.406;2023-07-13T13:20:19;23.10;97.10
69901;DHT22;57183;50.930;5.406;2023-07-13T13:22:45;22.80;97.10
69901;DHT22;57183;50.930;5.406;2023-07-13T13:25:12;22.60;98.00
69901;DHT22;57183;50.930;5.406;2023-07-13T13:27:40;22.60;97.80
69901;DHT22;57183;50.930;5.406;2023-07-13T13:30:17;22.50;97.70
69901;DHT22;57183;50.930;5.406;2023-07-13T13:32:45;22.50;98.00
69901;DHT22;57183;50.930;5.406;2023-07-13T13:35:16;22.50;98.60
69901;DHT22;57183;50.930;5.406;2023-07-13T13:37:43;22.50;99.00
69901;DHT22;57183;50.930;5.406;2023-07-13T13:40:17;21.90;99.90
69901;DHT22;57183;50.930;5.406;2023-07-13T13:42:43;21.10;99.90
69901;DHT22;57183;50.930;5.406;2023-07-13T13:45:10;20.30;99.90
69901;DHT22;57183;50.930;5.406;2023-07-13T13:47:36;20.00;99.90
69901;DHT22;57183;50.930;5.406;2023-07-13T13:50:13;19.90;99.90
69901;DHT22;57183;50.930;5.406;2023-07-13T13:52:40;19.70;99.90
69901;DHT22;57183;50.930;5.406;2023-07-13T13:55:17;19.90;99.90
69901;DHT22;57183;50.930;5.406;2023-07-13T13:57:47;19.70;99.90
69901;DHT22;57183;50.930;5.406;2023-07-13T14:00:14;19.70;99.90
69901;DHT22;57183;50.930;5.406;2023-07-13T14:02:45;19.70;99.90
69901;DHT22;57183;50.930;5.406;2023-07-13T14:05:22;19.70;99.90
69901;DHT22;57183;50.930;5.406;2023-07-13T14:07:48;19.90;99.90
69901;DHT22;57183;50.930;5.406;2023-07-13T14:10:17;19.90;99.90
69901;DHT22;57183;50.930;5.406;2023-07-13T14:12:45;20.00;99.90
69901;DHT22;57183;50.930;5.406;2023-07-13T14:15:24;20.10;99.90
69901;DHT22;57183;50.930;5.406;2023-07-13T14:17:51;20.20;99.90
69901;DHT22;57183;50.930;5.406;2023-07-13T14:20:18;20.40;99.90
69901;DHT22;57183;50.930;5.406;2023-07-13T14:22:44;20.40;99.90
69901;DHT22;57183;50.930;5.406;2023-07-13T14:25:14;20.50;99.90
69901;DHT22;57183;50.930;5.406;2023-07-13T14:27:41;20.60;99.90
69901;DHT22;57183;50.930;5.406;2023-07-13T14:32:40;21.00;99.90
69901;DHT22;57183;50.930;5.406;2023-07-13T14:35:07;21.20;99.90
69901;DHT22;57183;50.930;5.406;2023-07-13T14:37:32;21.50;99.90
69901;DHT22;57183;50.930;5.406;2023-07-13T14:39:58;21.70;99.90
69901;DHT22;57183;50.930;5.406;2023-07-13T14:42:24;21.40;99.90
69901;DHT22;57183;50.930;5.406;2023-07-13T14:44:49;21.20;99.90
69901;DHT22;57183;50.930;5.406;2023-07-13T14:47:15;21.20;99.90
69901;DHT22;57183;50.930;5.406;2023-07-13T14:49:44;21.20;99.90
69901;DHT22;57183;50.930;5.406;2023-07-13T14:52:15;21.20;99.90
69901;DHT22;57183;50.930;5.406;2023-07-13T14:54:41;21.20;99.90
69901;DHT22;57183;50.930;5.406;2023-07-13T14:57:14;21.30;99.90
69901;DHT22;57183;50.930;5.406;2023-07-13T14:59:41;21.50;99.90
69901;DHT22;57183;50.930;5.406;2023-07-13T15:02:30;23.00;99.90
69901;DHT22;57183;50.930;5.406;2023-07-13T15:04:57;23.70;99.90
69901;DHT22;57183;50.930;5.406;2023-07-13T15:07:23;24.00;99.90
69901;DHT22;57183;50.930;5.406;2023-07-13T15:09:50;24.40;99.90
69901;DHT22;57183;50.930;5.406;2023-07-13T15:12:16;24.70;99.50
69901;DHT22;57183;50.930;5.406;2023-07-13T15:14:42;24.50;98.90
69901;DHT22;57183;50.930;5.406;2023-07-13T15:17:41;24.40;99.30
69901;DHT22;57183;50.930;5.406;2023-07-13T15:20:32;24.20;99.30
69901;DHT22;57183;50.930;5.406;2023-07-13T15:22:58;24.10;98.60
69901;DHT22;57183;50.930;5.406;2023-07-13T15:25:26;24.10;99.60
69901;DHT22;57183;50.930;5.406;2023-07-13T15:27:53;24.10;99.00
69901;DHT22;57183;50.930;5.406;2023-07-13T15:30:20;24.40;99.60
69901;DHT22;57183;50.930;5.406;2023-07-13T15:32:46;24.90;98.40
69901;DHT22;57183;50.930;5.406;2023-07-13T15:35:21;25.80;96.20
69901;DHT22;57183;50.930;5.406;2023-07-13T15:37:50;26.10;95.90
69901;DHT22;57183;50.930;5.406;2023-07-13T15:40:16;27.00;94.80
69901;DHT22;57183;50.930;5.406;2023-07-13T15:42:44;27.50;92.80
69901;DHT22;57183;50.930;5.406;2023-07-13T15:45:19;28.20;91.40
69901;DHT22;57183;50.930;5.406;2023-07-13T15:47:46;28.60;91.40
69901;DHT22;57183;50.930;5.406;2023-07-13T15:50:20;28.80;90.10
69901;DHT22;57183;50.930;5.406;2023-07-13T15:52:52;29.80;89.20
69901;DHT22;57183;50.930;5.406;2023-07-13T15:55:18;29.40;85.80
69901;DHT22;57183;50.930;5.406;2023-07-13T15:57:50;28.50;87.30
69901;DHT22;57183;50.930;5.406;2023-07-13T16:00:24;27.70;88.80
69901;DHT22;57183;50.930;5.406;2023-07-13T16:02:51;26.90;90.30
69901;DHT22;57183;50.930;5.406;2023-07-13T16:05:18;26.40;91.20
69901;DHT22;57183;50.930;5.406;2023-07-13T16:07:45;26.10;92.10
69901;DHT22;57183;50.930;5.406;2023-07-13T16:10:22;25.80;92.70
69901;DHT22;57183;50.930;5.406;2023-07-13T16:12:50;25.60;93.30
69901;DHT22;57183;50.930;5.406;2023-07-13T16:15:20;26.00;93.00
69901;DHT22;57183;50.930;5.406;2023-07-13T16:17:47;25.30;91.60